Midland International Airport
KMAF : now visible

Airfield :











YOU CAN JOIN US ON...

 
LOGIN :

Register | Disclaimer

   EN    FR    IT 

 









Legend :    VFR   Marginal VFR   IFR   Intensive IFR   Very Intensive IFR
Visi :
Ceiling :
>= 8 km
>= 3000ft
5 to 8 km
1000 to 3000 ft
1500m to 5 km
500 to 1000 ft
800 to 1500m
200 to 500 ft
< 800m
< 200 ft
Symbols :   Thunderstorms  Fog  Heavy snow  Heavy precipitations  Wind > 20 kt






- Airport Elevation : 2871 ft
- IATA code : MAF


KMAF - Midland International

CURRENT METAR :
  • 181053Z AUTO 35003KT 10SM CLR 04/03 A3022 RMK AO2 SLP216 T00440028

EXPIRED METARs :
  • 180953Z AUTO 31003KT 8SM CLR 03/03 A3020 RMK AO2 SLP211 T00330028
  • 180853Z AUTO 03005KT 10SM CLR 05/04 A3017 RMK AO2 SLP202 T00500044 53035
  • 180835Z AUTO 02008KT 4SM BR FEW002 06/05 A3017 RMK AO2 T00610050

TAF KMAF
Valid from the 18 at 09:00 until the 19 at 06:00 UTC


180925Z 1809/1906 03008KT P6SM SKC
FM181600 04014KT P6SM SKC



MET'MAP, your aeronautical weather chart ! - Copyright ORBIFLY December 2007 - Disclaimer

ORBIFLY MET'MAP TEAM :

Programming & Development : Alexandra Zaïnal
Concept & original design : Baudouin d'Aumeries
Assistance for programming : Marc-Olivier Méhu
Technical & hardware support : Manuel Goepfert

Contact : metmap@orbifly.com




SOURCES & CREDITS :

   NOAA       Earth
Advisory